createdAt,value
2023-02-02T00:00:00.968Z,4.24
2023-02-02T00:03:03.883Z,4.44
2023-02-02T00:06:07.296Z,4.38
2023-02-02T00:09:11.603Z,4.41
2023-02-02T00:12:16.254Z,4.49
2023-02-02T00:15:20.588Z,4.55
2023-02-02T00:18:24.207Z,4.63
2023-02-02T00:21:26.813Z,4.68
2023-02-02T00:24:29.481Z,4.69
2023-02-02T00:27:31.705Z,4.76
2023-02-02T00:30:34.647Z,4.84
2023-02-02T00:33:36.885Z,4.77
2023-02-02T00:36:40.124Z,4.83
2023-02-02T00:39:42.582Z,4.74
2023-02-02T00:42:49.175Z,4.74
2023-02-02T00:45:51.935Z,4.82
2023-02-02T00:48:54.840Z,4.78
2023-02-02T00:51:57.083Z,4.81
2023-02-02T00:55:00.642Z,4.70
2023-02-02T00:58:04.719Z,4.71
2023-02-02T01:01:16.201Z,4.59
2023-02-02T01:04:20.486Z,4.66
2023-02-02T01:07:23.157Z,4.64
2023-02-02T01:10:26.066Z,4.51
2023-02-02T01:13:29.554Z,4.53
2023-02-02T01:16:32.195Z,4.45
2023-02-02T01:19:36.487Z,4.51
2023-02-02T01:22:38.910Z,4.47
2023-02-02T01:25:41.639Z,4.32
2023-02-02T01:28:44.724Z,4.19
2023-02-02T01:31:47.859Z,3.97
2023-02-02T01:34:50.253Z,3.94
2023-02-02T01:37:53.174Z,3.92
2023-02-02T01:40:57.213Z,3.98
2023-02-02T01:44:06.503Z,3.89
2023-02-02T01:47:09.018Z,3.79
2023-02-02T01:50:14.949Z,3.79
2023-02-02T01:53:19.837Z,3.75
2023-02-02T01:56:37.470Z,3.83
2023-02-02T01:59:40.717Z,3.85
2023-02-02T02:02:48.226Z,3.89
2023-02-02T02:06:11.522Z,3.96
2023-02-02T02:09:14.565Z,3.91
2023-02-02T02:12:17.643Z,3.91
2023-02-02T02:15:40.473Z,3.98
2023-02-02T02:18:55.935Z,4.00
2023-02-02T02:22:23.403Z,3.94
2023-02-02T02:26:05.459Z,4.01
2023-02-02T02:29:14.875Z,3.99
2023-02-02T02:32:41.677Z,3.70
2023-02-02T02:36:10.412Z,3.77
2023-02-02T02:39:26.173Z,3.68
2023-02-02T02:42:36.298Z,3.64
2023-02-02T02:45:41.054Z,3.68
2023-02-02T02:48:45.579Z,3.70
2023-02-02T02:51:50.001Z,3.73
2023-02-02T02:54:55.721Z,3.61
2023-02-02T02:58:07.314Z,3.68
2023-02-02T03:01:21.100Z,3.56
2023-02-02T03:04:33.651Z,3.56
2023-02-02T03:08:01.447Z,3.56
2023-02-02T03:11:06.832Z,3.48
2023-02-02T03:14:09.773Z,3.39
2023-02-02T03:17:12.053Z,3.44
2023-02-02T03:20:15.106Z,3.46
2023-02-02T03:23:17.391Z,3.54
2023-02-02T03:26:20.361Z,3.57
2023-02-02T03:29:22.752Z,3.45
2023-02-02T03:32:25.626Z,3.47
2023-02-02T03:35:31.106Z,3.54
2023-02-02T03:38:34.112Z,3.47
2023-02-02T03:41:36.375Z,3.36
2023-02-02T03:44:38.926Z,3.31
2023-02-02T03:47:41.091Z,3.25
2023-02-02T03:50:43.666Z,3.24
2023-02-02T03:53:48.621Z,3.15
2023-02-02T03:56:51.436Z,3.04
2023-02-02T03:59:53.726Z,3.07
2023-02-02T04:02:56.384Z,2.97
2023-02-02T04:05:59.092Z,2.93
2023-02-02T04:09:01.770Z,2.83
2023-02-02T04:12:04.867Z,2.73
2023-02-02T04:15:08.061Z,2.74
2023-02-02T04:18:11.134Z,2.78
2023-02-02T04:21:13.621Z,2.67
2023-02-02T04:24:16.347Z,2.72
2023-02-02T04:27:18.937Z,2.62
2023-02-02T04:30:21.559Z,2.56
2023-02-02T04:33:25.476Z,2.38
2023-02-02T04:36:28.471Z,2.44
2023-02-02T04:39:31.198Z,2.53
2023-02-02T04:42:35.068Z,2.54
2023-02-02T04:45:37.985Z,2.49
2023-02-02T04:48:42.295Z,2.44
2023-02-02T04:51:44.474Z,2.45
2023-02-02T04:54:48.878Z,2.28
2023-02-02T04:57:52.393Z,2.40
2023-02-02T05:00:55.322Z,2.35
2023-02-02T05:03:58.263Z,2.38
2023-02-02T05:07:01.127Z,2.40
2023-02-02T05:10:04.920Z,2.36
2023-02-02T05:13:08.243Z,2.26
2023-02-02T05:16:10.843Z,2.33
2023-02-02T05:19:17.801Z,2.24
2023-02-02T05:22:20.010Z,2.26
2023-02-02T05:25:22.794Z,2.19
2023-02-02T05:28:25.795Z,2.28
2023-02-02T05:31:28.743Z,2.25
2023-02-02T05:34:30.957Z,2.30
2023-02-02T05:37:33.576Z,2.30
2023-02-02T05:40:36.092Z,2.21
2023-02-02T05:43:38.760Z,2.21
2023-02-02T05:46:41.744Z,2.18
2023-02-02T05:49:44.404Z,2.18
2023-02-02T05:52:47.163Z,2.26
2023-02-02T05:55:49.741Z,2.17
2023-02-02T05:58:52.324Z,2.22
2023-02-02T06:01:57.859Z,2.25
2023-02-02T06:05:00.585Z,2.22
2023-02-02T06:08:02.975Z,2.28
2023-02-02T06:11:13.741Z,2.34
2023-02-02T06:14:16.179Z,2.26
2023-02-02T06:17:18.833Z,2.36
2023-02-02T06:20:22.469Z,2.39
2023-02-02T06:23:26.111Z,2.31
2023-02-02T06:26:30.331Z,2.33
2023-02-02T06:29:33.334Z,2.40
2023-02-02T06:32:36.113Z,2.33
2023-02-02T06:35:39.211Z,2.44
2023-02-02T06:38:41.560Z,2.47
2023-02-02T06:41:46.722Z,2.64
2023-02-02T06:44:49.597Z,2.67
2023-02-02T06:47:52.587Z,2.61
2023-02-02T06:50:58.456Z,2.65
2023-02-02T06:54:01.308Z,2.70
2023-02-02T06:57:03.700Z,2.86
2023-02-02T07:00:07.105Z,3.59
2023-02-02T07:03:09.583Z,4.21
2023-02-02T07:06:30.332Z,4.31
2023-02-02T07:09:34.178Z,4.10
2023-02-02T07:12:36.884Z,3.99
2023-02-02T07:15:40.510Z,3.84
2023-02-02T07:18:44.041Z,3.66
2023-02-02T07:21:46.322Z,3.61
2023-02-02T07:24:48.935Z,3.41
2023-02-02T07:27:55.075Z,3.51
2023-02-02T07:30:58.262Z,3.49
2023-02-02T07:34:00.875Z,3.62
2023-02-02T07:37:03.404Z,3.60
2023-02-02T07:40:06.265Z,3.56
2023-02-02T07:43:09.593Z,3.68
2023-02-02T07:46:14.497Z,3.76
2023-02-02T07:49:18.730Z,3.83
2023-02-02T07:52:20.936Z,3.89
2023-02-02T07:55:23.419Z,3.91
2023-02-02T07:58:25.989Z,4.16
2023-02-02T08:01:29.013Z,4.15
2023-02-02T08:04:34.282Z,4.28
2023-02-02T08:07:36.938Z,4.37
2023-02-02T08:10:39.580Z,4.41
2023-02-02T08:13:43.066Z,4.68
2023-02-02T08:16:45.763Z,4.70
2023-02-02T08:19:48.572Z,4.78
2023-02-02T08:22:51.395Z,4.89
2023-02-02T08:25:54.281Z,5.11
2023-02-02T08:29:00.168Z,5.24
2023-02-02T08:32:03.140Z,5.36
2023-02-02T08:35:06.324Z,5.65
2023-02-02T08:38:08.746Z,5.89
2023-02-02T08:41:15.714Z,5.99
2023-02-02T08:44:18.342Z,5.92
2023-02-02T08:47:22.569Z,5.81
2023-02-02T08:50:25.269Z,5.90
2023-02-02T08:53:28.735Z,6.06
2023-02-02T08:56:31.047Z,6.28
2023-02-02T08:59:34.085Z,6.13
2023-02-02T09:02:36.543Z,6.14
2023-02-02T09:05:39.835Z,6.18
2023-02-02T09:08:42.430Z,6.14
2023-02-02T09:11:45.973Z,5.99
2023-02-02T09:14:48.454Z,5.95
2023-02-02T09:17:52.126Z,6.09
2023-02-02T09:20:55.169Z,6.02
2023-02-02T09:23:59.339Z,5.86
2023-02-02T09:27:01.962Z,5.75
2023-02-02T09:30:05.594Z,5.93
2023-02-02T09:33:09.716Z,5.87
2023-02-02T09:36:18.389Z,5.88
2023-02-02T09:39:20.766Z,5.92
2023-02-02T09:42:42.580Z,6.05
2023-02-02T09:46:01.539Z,6.09
2023-02-02T09:49:12.540Z,6.21
2023-02-02T09:52:21.474Z,6.50
2023-02-02T09:55:24.289Z,6.85
2023-02-02T09:58:52.041Z,6.88
2023-02-02T10:02:01.202Z,7.04
2023-02-02T10:05:25.158Z,7.06
2023-02-02T10:08:42.094Z,6.93
2023-02-02T10:11:59.781Z,7.06
2023-02-02T10:15:33.548Z,7.01
2023-02-02T10:18:43.043Z,7.17
2023-02-02T10:22:05.256Z,7.43
2023-02-02T10:25:13.235Z,7.35
2023-02-02T10:28:28.580Z,7.59
2023-02-02T10:31:35.484Z,7.69
2023-02-02T10:34:41.925Z,7.55
2023-02-02T10:37:54.228Z,7.60
2023-02-02T10:41:06.115Z,7.47
2023-02-02T10:44:24.868Z,7.43
2023-02-02T10:47:32.106Z,7.29
2023-02-02T10:50:35.579Z,7.05
2023-02-02T10:53:38.759Z,7.04
2023-02-02T10:56:52.728Z,7.14
2023-02-02T11:00:15.504Z,7.27
2023-02-02T11:03:20.731Z,7.23
2023-02-02T11:06:41.812Z,7.19
2023-02-02T11:09:44.468Z,7.21
2023-02-02T11:12:53.158Z,7.30
2023-02-02T11:16:20.793Z,7.37
2023-02-02T11:19:29.764Z,7.37
2023-02-02T11:22:37.177Z,7.28
2023-02-02T11:25:40.662Z,7.38
2023-02-02T11:28:43.644Z,7.57
2023-02-02T11:31:46.123Z,7.64
2023-02-02T11:34:48.831Z,7.57
2023-02-02T11:38:14.152Z,7.66
2023-02-02T11:44:57.525Z,7.66
2023-02-02T11:48:05.247Z,7.61
2023-02-02T11:51:19.880Z,7.66
2023-02-02T11:54:32.996Z,7.58
2023-02-02T11:57:35.417Z,7.75
2023-02-02T12:00:54.826Z,7.52
2023-02-02T12:03:59.412Z,7.49
2023-02-02T12:07:08.076Z,7.24
2023-02-02T12:10:42.252Z,7.19
2023-02-02T12:14:11.949Z,7.12
2023-02-02T12:17:42.998Z,7.04
2023-02-02T12:21:04.263Z,7.07
2023-02-02T12:24:32.774Z,7.15
2023-02-02T12:28:00.836Z,7.14
2023-02-02T12:31:16.231Z,7.02
2023-02-02T12:34:40.778Z,6.95
2023-02-02T12:37:49.663Z,6.96
2023-02-02T12:41:31.481Z,6.94
2023-02-02T12:45:19.063Z,6.95
2023-02-02T12:48:34.287Z,7.01
2023-02-02T13:53:55.112Z,6.86
2023-02-02T13:57:16.623Z,6.94
2023-02-02T14:00:24.720Z,7.10
2023-02-02T14:03:51.529Z,7.20
2023-02-02T14:10:07.324Z,7.33
2023-02-02T14:13:32.568Z,7.16
2023-02-02T14:16:35.384Z,7.09
2023-02-02T14:19:44.119Z,7.33
2023-02-02T14:22:50.859Z,7.19
2023-02-02T14:26:08.725Z,7.14
2023-02-02T14:29:29.467Z,7.21
2023-02-02T14:32:40.969Z,7.09
2023-02-02T14:35:55.024Z,7.01
2023-02-02T14:39:16.108Z,6.92
2023-02-02T14:42:40.475Z,6.80
2023-02-02T14:45:44.795Z,6.74
2023-02-02T14:49:07.530Z,6.66
2023-02-02T14:52:22.909Z,6.85
2023-02-02T14:55:27.794Z,6.89
2023-02-02T14:58:34.238Z,6.71
2023-02-02T15:01:38.853Z,6.75
2023-02-02T15:04:41.587Z,6.75
2023-02-02T15:07:52.974Z,6.78
2023-02-02T15:10:55.212Z,6.74
2023-02-02T15:14:08.933Z,6.67
2023-02-02T15:17:41.815Z,6.58
2023-02-02T15:20:50.834Z,6.40
2023-02-02T15:23:54.184Z,6.34
2023-02-02T15:26:59.978Z,6.25
2023-02-02T15:30:07.049Z,6.06
2023-02-02T15:33:24.266Z,6.10
2023-02-02T15:36:37.481Z,6.01
2023-02-02T15:39:45.640Z,5.87
2023-02-02T15:42:54.776Z,5.73
2023-02-02T15:46:12.801Z,5.60
2023-02-02T15:49:34.759Z,5.44
2023-02-02T15:52:46.942Z,5.37
2023-02-02T15:55:49.859Z,5.23
2023-02-02T15:58:54.475Z,5.10
2023-02-02T16:02:09.699Z,5.13
2023-02-02T16:05:31.165Z,5.07
2023-02-02T16:08:36.204Z,5.00
2023-02-02T16:11:42.230Z,5.06
2023-02-02T16:14:49.892Z,4.81
2023-02-02T16:18:04.907Z,4.77
2023-02-02T16:21:15.125Z,4.67
2023-02-02T16:24:24.277Z,4.75
2023-02-02T16:27:28.949Z,4.69
2023-02-02T16:30:35.610Z,4.70
2023-02-02T16:33:43.461Z,4.80
2023-02-02T16:37:04.981Z,4.67
2023-02-02T16:40:31.263Z,4.65
2023-02-02T16:43:35.687Z,4.63
2023-02-02T16:46:48.460Z,4.65
2023-02-02T16:49:55.490Z,4.58
2023-02-02T16:53:03.923Z,4.55
2023-02-02T16:56:08.805Z,4.56
2023-02-02T16:59:20.185Z,4.54
2023-02-02T17:02:32.012Z,4.57
2023-02-02T17:05:54.075Z,4.61
2023-02-02T17:08:56.945Z,4.55
2023-02-02T17:12:34.772Z,4.45
2023-02-02T17:15:38.493Z,4.37
2023-02-02T17:18:40.817Z,4.32
2023-02-02T17:21:43.478Z,4.32
2023-02-02T17:24:47.950Z,4.25
2023-02-02T17:27:51.055Z,4.22
2023-02-02T17:31:00.971Z,4.27
2023-02-02T17:34:06.589Z,4.18
2023-02-02T17:37:09.070Z,4.13
2023-02-02T17:40:16.185Z,4.19
2023-02-02T17:43:18.732Z,4.22
2023-02-02T17:46:21.413Z,4.13
2023-02-02T17:49:24.433Z,4.24
2023-02-02T17:52:27.505Z,4.33
2023-02-02T17:55:32.836Z,4.29
2023-02-02T17:58:35.775Z,4.30
2023-02-02T18:01:41.463Z,4.26
2023-02-02T18:04:45.689Z,4.13
2023-02-02T18:07:48.218Z,4.04
2023-02-02T18:10:50.863Z,4.28
2023-02-02T18:13:53.189Z,4.19
2023-02-02T18:16:56.167Z,4.15
2023-02-02T18:19:58.727Z,4.17
2023-02-02T18:23:01.800Z,4.22
2023-02-02T18:26:11.518Z,4.07
2023-02-02T18:29:14.277Z,4.09
2023-02-02T18:32:17.773Z,3.99
2023-02-02T18:35:20.573Z,4.05
2023-02-02T18:38:22.902Z,3.98
2023-02-02T18:41:25.528Z,3.92
2023-02-02T18:44:28.078Z,3.84
2023-02-02T18:47:31.143Z,3.85
2023-02-02T18:50:33.673Z,4.01
2023-02-02T18:53:36.655Z,3.98
2023-02-02T18:56:39.092Z,4.02
2023-02-02T18:59:42.067Z,4.02
2023-02-02T19:02:44.257Z,4.03
2023-02-02T19:06:05.950Z,3.92
2023-02-02T19:09:08.966Z,3.91
2023-02-02T19:12:14.378Z,3.82
2023-02-02T19:15:17.120Z,3.86
2023-02-02T19:18:22.780Z,3.85
2023-02-02T19:21:29.153Z,3.86
2023-02-02T19:24:40.837Z,3.86
2023-02-02T19:27:43.091Z,3.80
2023-02-02T19:30:45.662Z,3.68
2023-02-02T19:33:50.459Z,3.75
2023-02-02T19:36:52.986Z,3.74
2023-02-02T19:40:23.222Z,3.79
2023-02-02T19:43:29.919Z,3.82
2023-02-02T19:46:32.791Z,3.71
2023-02-02T19:49:36.941Z,3.61
2023-02-02T19:52:39.246Z,3.66
2023-02-02T19:55:44.249Z,3.73
2023-02-02T19:58:48.026Z,3.81
2023-02-02T20:01:51.090Z,3.70
2023-02-02T20:05:03.690Z,3.76
2023-02-02T20:08:35.449Z,3.60
2023-02-02T20:11:43.992Z,3.52
2023-02-02T20:14:48.111Z,3.56
2023-02-02T20:17:51.600Z,3.61
2023-02-02T20:20:57.051Z,3.55
2023-02-02T20:23:59.896Z,3.53
2023-02-02T20:27:16.721Z,3.46
2023-02-02T20:30:24.591Z,3.51
2023-02-02T20:33:27.461Z,3.53
2023-02-02T20:36:40.267Z,3.62
2023-02-02T20:39:47.834Z,3.60
2023-02-02T20:42:50.776Z,3.54
2023-02-02T20:45:53.168Z,3.50
2023-02-02T20:48:55.983Z,3.43
2023-02-02T20:52:01.765Z,3.46
2023-02-02T20:55:04.812Z,3.42
2023-02-02T20:58:07.219Z,3.48
2023-02-02T21:01:09.827Z,3.47
2023-02-02T21:04:12.597Z,3.53
2023-02-02T21:07:17.252Z,3.38
2023-02-02T21:10:19.682Z,3.34
2023-02-02T21:13:22.410Z,3.36
2023-02-02T21:16:25.283Z,3.51
2023-02-02T21:19:28.140Z,3.44
2023-02-02T21:22:30.433Z,3.34
2023-02-02T21:25:33.008Z,3.37
2023-02-02T21:28:35.076Z,3.31
2023-02-02T21:31:39.845Z,3.29
2023-02-02T21:34:42.367Z,3.19
2023-02-02T21:37:47.184Z,3.21
2023-02-02T21:40:51.542Z,3.14
2023-02-02T21:43:54.267Z,3.05
2023-02-02T21:46:56.499Z,3.04
2023-02-02T21:50:11.760Z,3.10
2023-02-02T21:53:17.122Z,3.08
2023-02-02T21:56:34.508Z,2.98
2023-02-02T21:59:36.921Z,3.09
2023-02-02T22:02:45.006Z,3.11
2023-02-02T22:05:47.790Z,3.06
2023-02-02T22:08:51.125Z,2.94
2023-02-02T22:12:02.034Z,2.94
2023-02-02T22:15:18.291Z,2.93
2023-02-02T22:18:23.463Z,2.81
2023-02-02T22:21:25.868Z,2.92
2023-02-02T22:24:28.488Z,3.02
2023-02-02T22:27:58.315Z,3.01
2023-02-02T22:31:01.030Z,2.87
2023-02-02T22:34:03.271Z,2.91
2023-02-02T22:37:05.937Z,2.94
2023-02-02T22:40:09.184Z,2.85
2023-02-02T22:43:13.519Z,2.87
2023-02-02T22:46:15.907Z,2.86
2023-02-02T22:49:18.844Z,2.70
2023-02-02T22:52:21.244Z,2.79
2023-02-02T22:55:24.213Z,2.86
2023-02-02T22:58:26.535Z,2.73
2023-02-02T23:01:29.051Z,2.67
2023-02-02T23:04:31.590Z,2.70
2023-02-02T23:07:34.498Z,2.68
2023-02-02T23:10:37.008Z,2.77
2023-02-02T23:13:39.603Z,2.81
2023-02-02T23:16:41.906Z,2.71
2023-02-02T23:19:44.628Z,2.75
2023-02-02T23:22:47.179Z,2.77
2023-02-02T23:25:49.764Z,2.88
2023-02-02T23:28:52.382Z,2.85
2023-02-02T23:31:55.385Z,2.85
2023-02-02T23:34:57.709Z,2.77
2023-02-02T23:38:00.425Z,2.82
2023-02-02T23:41:02.757Z,2.73
2023-02-02T23:44:05.652Z,2.68
2023-02-02T23:47:09.042Z,2.70
2023-02-02T23:50:12.253Z,2.59
2023-02-02T23:53:15.032Z,2.53
2023-02-02T23:56:18.056Z,2.49
2023-02-02T23:59:20.367Z,2.59
